createdAt,value
2023-05-05T00:01:16.833Z,101428.22
2023-05-05T00:04:22.838Z,101428.16
2023-05-05T00:07:25.385Z,101436.13
2023-05-05T00:10:28.272Z,101428.16
2023-05-05T00:13:30.962Z,101418.38
2023-05-05T00:16:33.709Z,101431.53
2023-05-05T00:19:36.449Z,101433.25
2023-05-05T00:22:39.185Z,101423.38
2023-05-05T00:25:41.715Z,101431.28
2023-05-05T00:28:44.654Z,101426.84
2023-05-05T00:31:47.149Z,101428.50
2023-05-05T00:34:49.866Z,101424.81
2023-05-05T00:37:52.235Z,101422.03
2023-05-05T00:40:55.105Z,101428.19
2023-05-05T00:43:57.560Z,101433.44
2023-05-05T00:47:00.387Z,101420.72
2023-05-05T00:50:21.602Z,101424.28
2023-05-05T00:53:26.738Z,101427.66
2023-05-05T00:56:29.214Z,101427.38
2023-05-05T00:59:33.978Z,101420.06
2023-05-05T01:02:36.778Z,101418.16
2023-05-05T01:06:11.150Z,101418.75
2023-05-05T01:09:42.666Z,101415.81
2023-05-05T01:13:19.457Z,101416.72
2023-05-05T01:16:26.006Z,101409.38
2023-05-05T01:19:49.727Z,101415.38
2023-05-05T01:22:58.675Z,101420.59
2023-05-05T01:26:39.396Z,101415.16
2023-05-05T01:30:11.506Z,101407.94
2023-05-05T01:33:16.286Z,101406.88
2023-05-05T01:36:24.603Z,101419.31
2023-05-05T01:39:31.965Z,101412.13
2023-05-05T01:42:35.656Z,101407.75
2023-05-05T01:45:39.599Z,101414.88
2023-05-05T01:48:43.577Z,101408.63
2023-05-05T01:51:47.560Z,101406.88
2023-05-05T01:54:51.055Z,101404.94
2023-05-05T01:57:55.339Z,101405.00
2023-05-05T02:00:58.946Z,101405.91
2023-05-05T02:04:03.796Z,101393.72
2023-05-05T02:07:06.994Z,101397.25
2023-05-05T02:10:10.894Z,101391.97
2023-05-05T02:13:13.527Z,101390.28
2023-05-05T02:16:17.292Z,101374.47
2023-05-05T02:19:21.868Z,101379.75
2023-05-05T02:22:25.410Z,101383.31
2023-05-05T02:25:35.185Z,101373.59
2023-05-05T02:29:07.687Z,101376.31
2023-05-05T02:32:15.037Z,101389.41
2023-05-05T02:35:21.486Z,101378.00
2023-05-05T02:38:27.821Z,101374.41
2023-05-05T02:41:36.681Z,101371.72
2023-05-05T02:44:45.918Z,101371.72
2023-05-05T02:47:49.772Z,101368.06
2023-05-05T02:50:52.579Z,101374.19
2023-05-05T02:54:06.896Z,101378.56
2023-05-05T02:57:11.690Z,101375.03
2023-05-05T03:00:40.505Z,101375.84
2023-05-05T03:04:07.817Z,101375.69
2023-05-05T03:07:26.739Z,101373.00
2023-05-05T03:10:56.326Z,101365.00
2023-05-05T03:14:09.268Z,101373.91
2023-05-05T03:17:13.937Z,101380.00
2023-05-05T03:20:17.307Z,101372.19
2023-05-05T03:23:23.428Z,101373.00
2023-05-05T03:26:31.711Z,101385.38
2023-05-05T03:29:34.244Z,101388.69
2023-05-05T03:32:38.642Z,101392.06
2023-05-05T03:35:41.071Z,101401.81
2023-05-05T03:38:46.817Z,101395.78
2023-05-05T03:41:49.572Z,101405.47
2023-05-05T03:44:54.641Z,101414.22
2023-05-05T03:47:58.566Z,101415.94
2023-05-05T03:51:01.333Z,101418.75
2023-05-05T03:54:06.696Z,101420.59
2023-05-05T03:57:09.725Z,101423.38
2023-05-05T04:00:12.721Z,101419.91
2023-05-05T04:03:18.529Z,101432.53
2023-05-05T04:06:23.967Z,101425.81
2023-05-05T04:09:26.843Z,101429.59
2023-05-05T04:12:30.290Z,101432.47
2023-05-05T04:15:33.474Z,101437.28
2023-05-05T04:18:37.490Z,101429.63
2023-05-05T04:21:40.853Z,101430.63
2023-05-05T04:24:44.590Z,101442.47
2023-05-05T04:27:48.576Z,101440.97
2023-05-05T04:30:51.758Z,101445.75
2023-05-05T04:33:54.259Z,101446.13
2023-05-05T04:36:57.411Z,101445.41
2023-05-05T04:40:00.073Z,101449.00
2023-05-05T04:43:04.123Z,101452.75
2023-05-05T04:46:08.476Z,101455.56
2023-05-05T04:49:13.888Z,101453.94
2023-05-05T04:52:16.359Z,101440.78
2023-05-05T04:55:19.215Z,101448.16
2023-05-05T04:58:21.761Z,101447.41
2023-05-05T05:01:24.601Z,101438.84
2023-05-05T05:04:27.612Z,101431.06
2023-05-05T05:07:30.602Z,101427.81
2023-05-05T05:10:33.068Z,101434.28
2023-05-05T05:13:35.809Z,101437.03
2023-05-05T05:16:38.327Z,101437.19
2023-05-05T05:19:41.766Z,101447.16
2023-05-05T05:22:44.249Z,101450.81
2023-05-05T05:25:51.493Z,101456.31
2023-05-05T05:28:55.943Z,101454.59
2023-05-05T05:31:59.014Z,101457.44
2023-05-05T05:35:01.592Z,101457.44
2023-05-05T05:38:04.538Z,101455.75
2023-05-05T05:41:10.247Z,101463.06
2023-05-05T05:44:14.905Z,101461.41
2023-05-05T05:47:17.349Z,101459.81
2023-05-05T05:50:23.508Z,101467.00
2023-05-05T05:53:26.371Z,101453.69
2023-05-05T05:56:30.298Z,101457.38
2023-05-05T05:59:33.272Z,101458.28
2023-05-05T06:02:36.405Z,101446.69
2023-05-05T06:05:39.092Z,101456.25
2023-05-05T06:08:42.501Z,101450.75
2023-05-05T06:11:44.919Z,101459.63
2023-05-05T06:14:47.841Z,101455.13
2023-05-05T06:17:50.287Z,101465.91
2023-05-05T06:20:53.183Z,101468.63
2023-05-05T06:23:58.698Z,101475.81
2023-05-05T06:27:02.733Z,101475.88
2023-05-05T06:30:07.408Z,101474.06
2023-05-05T06:33:10.371Z,101478.63
2023-05-05T06:36:12.816Z,101479.47
2023-05-05T06:39:16.132Z,101485.63
2023-05-05T06:42:18.688Z,101483.81
2023-05-05T06:45:22.495Z,101481.06
2023-05-05T06:48:24.937Z,101482.81
2023-05-05T06:51:27.912Z,101479.09
2023-05-05T06:54:30.323Z,101487.06
2023-05-05T06:57:33.132Z,101496.78
2023-05-05T07:00:35.501Z,101486.13
2023-05-05T07:03:38.464Z,101494.94
2023-05-05T07:06:41.040Z,101480.53
2023-05-05T07:09:45.263Z,101478.53
2023-05-05T07:12:49.369Z,101487.44
2023-05-05T07:15:52.133Z,101479.31
2023-05-05T07:18:54.615Z,101491.84
2023-05-05T07:21:57.556Z,101479.97
2023-05-05T07:25:00.008Z,101487.91
2023-05-05T07:28:03.118Z,101493.09
2023-05-05T07:31:05.703Z,101482.25
2023-05-05T07:34:09.328Z,101484.72
2023-05-05T07:37:11.800Z,101501.28
2023-05-05T07:40:14.634Z,101487.03
2023-05-05T07:43:16.976Z,101487.19
2023-05-05T07:46:20.157Z,101474.53
2023-05-05T07:49:22.695Z,101493.09
2023-05-05T07:52:43.310Z,101485.34
2023-05-05T07:55:47.402Z,101474.78
2023-05-05T07:58:50.246Z,101479.47
2023-05-05T08:01:54.334Z,101488.63
2023-05-05T08:04:57.749Z,101492.81
2023-05-05T08:08:00.208Z,101490.78
2023-05-05T08:11:03.545Z,101495.34
2023-05-05T08:14:05.964Z,101495.91
2023-05-05T08:17:09.083Z,101501.16
2023-05-05T08:20:12.160Z,101499.84
2023-05-05T08:23:14.856Z,101500.97
2023-05-05T08:26:17.478Z,101492.81
2023-05-05T08:29:20.222Z,101503.59
2023-05-05T08:32:22.677Z,101494.59
2023-05-05T08:35:25.625Z,101499.22
2023-05-05T08:38:28.205Z,101496.94
2023-05-05T08:41:31.178Z,101499.50
2023-05-05T08:44:34.065Z,101504.22
2023-05-05T08:47:37.748Z,101507.88
2023-05-05T08:50:40.816Z,101514.94
2023-05-05T08:53:56.078Z,101510.72
2023-05-05T08:57:02.164Z,101509.16
2023-05-05T09:00:05.666Z,101514.69
2023-05-05T09:03:08.256Z,101508.28
2023-05-05T09:06:11.581Z,101514.00
2023-05-05T09:09:14.559Z,101516.50
2023-05-05T09:12:18.820Z,101515.50
2023-05-05T09:15:21.262Z,101513.09
2023-05-05T09:18:24.075Z,101518.47
2023-05-05T09:21:26.720Z,101516.00
2023-05-05T09:24:29.536Z,101514.59
2023-05-05T09:27:36.405Z,101520.88
2023-05-05T09:30:40.709Z,101522.41
2023-05-05T09:33:43.884Z,101520.94
2023-05-05T09:36:48.201Z,101524.59
2023-05-05T09:39:55.160Z,101514.00
2023-05-05T09:43:03.134Z,101511.78
2023-05-05T09:46:07.836Z,101513.53
2023-05-05T09:49:18.697Z,101514.53
2023-05-05T09:52:21.263Z,101526.00
2023-05-05T09:55:24.903Z,101518.88
2023-05-05T09:58:29.035Z,101516.00
2023-05-05T10:01:31.803Z,101519.94
2023-05-05T10:07:51.007Z,101519.53
2023-05-05T10:11:07.415Z,101520.34
2023-05-05T10:14:14.331Z,101514.53
2023-05-05T10:17:17.140Z,101512.56
2023-05-05T10:20:21.418Z,101527.00
2023-05-05T10:23:25.090Z,101529.78
2023-05-05T10:26:28.170Z,101533.47
2023-05-05T10:29:42.662Z,101520.44
2023-05-05T10:33:03.441Z,101518.66
2023-05-05T10:36:12.926Z,101522.03
2023-05-05T10:39:17.305Z,101512.44
2023-05-05T10:42:20.772Z,101521.16
2023-05-05T10:45:23.649Z,101514.78
2023-05-05T10:48:43.151Z,101519.59
2023-05-05T10:51:51.807Z,101514.75
2023-05-05T10:55:15.851Z,101511.94
2023-05-05T10:58:47.107Z,101510.72
2023-05-05T11:01:58.512Z,101520.81
2023-05-05T11:05:15.262Z,101525.97
2023-05-05T11:08:27.892Z,101502.66
2023-05-05T11:12:04.228Z,101501.34
2023-05-05T11:15:31.636Z,101504.81
2023-05-05T11:18:36.568Z,101510.53
2023-05-05T11:22:04.713Z,101508.56
2023-05-05T11:25:41.034Z,101503.22
2023-05-05T11:29:00.338Z,101506.31
2023-05-05T11:32:13.326Z,101519.19
2023-05-05T11:35:16.481Z,101514.13
2023-05-05T11:38:22.292Z,101515.16
2023-05-05T11:41:35.426Z,101513.16
2023-05-05T11:44:38.032Z,101515.56
2023-05-05T11:47:40.887Z,101507.59
2023-05-05T11:50:43.307Z,101499.81
2023-05-05T11:53:47.708Z,101511.81
2023-05-05T11:56:51.434Z,101511.25
2023-05-05T11:59:57.163Z,101504.91
2023-05-05T12:02:59.940Z,101501.19
2023-05-05T12:06:04.244Z,101504.50
2023-05-05T12:09:21.123Z,101490.34
2023-05-05T12:12:42.487Z,101488.81
2023-05-05T12:15:45.113Z,101492.78
2023-05-05T12:18:48.101Z,101494.81
2023-05-05T12:21:50.636Z,101499.75
2023-05-05T12:24:57.893Z,101491.50
2023-05-05T12:28:00.350Z,101496.69
2023-05-05T12:31:03.930Z,101493.66
2023-05-05T12:34:09.895Z,101485.03
2023-05-05T12:37:12.740Z,101493.78
2023-05-05T12:40:44.237Z,101511.56
2023-05-05T12:43:47.930Z,101506.00
2023-05-05T12:46:53.139Z,101501.19
2023-05-05T12:49:56.265Z,101501.22
2023-05-05T12:52:58.699Z,101500.72
2023-05-05T12:56:01.389Z,101501.09
2023-05-05T12:59:29.255Z,101506.94
2023-05-05T13:02:35.522Z,101508.63
2023-05-05T13:05:38.003Z,101507.38
2023-05-05T13:08:44.066Z,101507.94
2023-05-05T13:11:46.537Z,101511.91
2023-05-05T13:14:49.367Z,101503.09
2023-05-05T13:17:58.451Z,101525.84
2023-05-05T13:21:01.212Z,101516.47
2023-05-05T13:27:09.860Z,101507.56
2023-05-05T13:30:12.697Z,101511.13
2023-05-05T13:33:15.417Z,101515.00
2023-05-05T13:36:17.966Z,101511.66
2023-05-05T13:39:21.082Z,101499.97
2023-05-05T13:42:25.031Z,101499.06
2023-05-05T13:45:27.822Z,101489.06
2023-05-05T13:48:30.256Z,101491.53
2023-05-05T13:51:34.973Z,101494.25
2023-05-05T13:54:37.810Z,101495.31
2023-05-05T13:57:40.500Z,101497.13
2023-05-05T14:00:43.215Z,101485.47
2023-05-05T14:03:46.145Z,101487.00
2023-05-05T14:06:48.653Z,101485.75
2023-05-05T16:02:56.246Z,101504.19
2023-05-05T16:05:58.703Z,101500.69
2023-05-05T16:09:01.474Z,101502.41
2023-05-05T16:12:04.361Z,101506.06
2023-05-05T16:15:07.844Z,101506.13
2023-05-05T16:18:10.814Z,101506.13
2023-05-05T16:21:13.708Z,101500.13
2023-05-05T16:24:17.095Z,101507.25
2023-05-05T16:27:19.928Z,101501.09
2023-05-05T16:30:22.996Z,101487.84
2023-05-05T16:33:25.866Z,101494.88
2023-05-05T16:36:28.605Z,101491.06
2023-05-05T16:39:33.207Z,101494.59
2023-05-05T16:42:35.563Z,101489.38
2023-05-05T16:45:38.389Z,101488.25
2023-05-05T16:48:41.281Z,101481.34
2023-05-05T16:51:44.478Z,101488.50
2023-05-05T16:54:48.408Z,101490.34
2023-05-05T16:57:51.178Z,101496.09
2023-05-05T17:00:54.009Z,101499.75
2023-05-05T17:03:58.048Z,101498.88
2023-05-05T17:07:00.534Z,101489.06
2023-05-05T17:10:03.281Z,101495.47
2023-05-05T17:13:05.748Z,101506.19
2023-05-05T17:16:08.598Z,101505.31
2023-05-05T17:19:10.974Z,101501.75
2023-05-05T17:22:13.838Z,101499.97
2023-05-05T17:25:16.267Z,101507.16
2023-05-05T17:28:20.361Z,101516.09
2023-05-05T17:31:22.813Z,101506.31
2023-05-05T17:34:25.765Z,101511.66
2023-05-05T17:37:28.673Z,101517.91
2023-05-05T17:40:31.324Z,101521.50
2023-05-05T17:43:34.114Z,101515.25
2023-05-05T17:46:37.633Z,101529.50
2023-05-05T17:49:40.452Z,101522.41
2023-05-05T17:52:44.128Z,101524.19
2023-05-05T17:55:47.176Z,101537.53
2023-05-05T17:58:49.632Z,101536.66
2023-05-05T18:01:52.281Z,101532.22
2023-05-05T18:04:55.349Z,101530.44
2023-05-05T18:07:58.430Z,101526.88
2023-05-05T18:11:02.112Z,101531.31
2023-05-05T18:14:05.069Z,101541.97
2023-05-05T18:17:07.906Z,101539.31
2023-05-05T18:20:11.265Z,101538.38
2023-05-05T18:23:13.990Z,101541.06
2023-05-05T18:26:17.631Z,101550.81
2023-05-05T18:29:22.102Z,101536.56
2023-05-05T18:32:24.943Z,101555.25
2023-05-05T18:35:28.228Z,101555.25
2023-05-05T18:38:31.833Z,101552.56
2023-05-05T18:41:35.902Z,101556.09
2023-05-05T18:44:40.415Z,101557.84
2023-05-05T18:47:43.369Z,101557.78
2023-05-05T18:50:47.082Z,101559.53
2023-05-05T18:53:50.206Z,101561.25
2023-05-05T18:56:53.081Z,101563.91
2023-05-05T18:59:55.836Z,101573.66
2023-05-05T19:02:58.777Z,101569.16
2023-05-05T19:06:06.191Z,101579.72
2023-05-05T19:09:09.298Z,101571.56
2023-05-05T19:12:11.854Z,101575.03
2023-05-05T19:15:14.893Z,101574.97
2023-05-05T19:18:17.534Z,101574.94
2023-05-05T19:21:20.401Z,101572.19
2023-05-05T19:24:22.892Z,101573.88
2023-05-05T19:27:27.445Z,101571.16
2023-05-05T19:30:30.786Z,101569.25
2023-05-05T19:33:34.377Z,101566.50
2023-05-05T19:36:36.827Z,101561.09
2023-05-05T19:39:40.157Z,101566.38
2023-05-05T19:42:44.066Z,101564.50
2023-05-05T19:45:48.106Z,101574.16
2023-05-05T19:48:51.198Z,101567.88
2023-05-05T19:51:55.310Z,101569.59
2023-05-05T19:54:59.072Z,101568.72
2023-05-05T19:58:01.801Z,101566.84
2023-05-05T20:01:04.244Z,101566.78
2023-05-05T20:04:07.720Z,101561.41
2023-05-05T20:07:10.332Z,101565.88
2023-05-05T20:10:16.927Z,101556.13
2023-05-05T20:13:20.127Z,101554.34
2023-05-05T20:16:23.016Z,101557.84
2023-05-05T20:19:25.473Z,101559.66
2023-05-05T20:22:28.278Z,101552.41
2023-05-05T20:25:30.924Z,101547.94
2023-05-05T20:28:34.455Z,101548.88
2023-05-05T20:31:39.159Z,101548.09
2023-05-05T20:34:41.933Z,101555.28
2023-05-05T20:38:11.117Z,101552.66
2023-05-05T20:41:33.453Z,101557.09
2023-05-05T20:45:58.572Z,101555.41
2023-05-05T20:54:00.002Z,101565.00
2023-05-05T21:02:00.947Z,101569.25
2023-05-05T21:10:25.576Z,101558.44
2023-05-05T21:13:29.260Z,101576.16
2023-05-05T21:17:16.762Z,101574.34
2023-05-05T21:20:43.514Z,101572.50
2023-05-05T21:23:48.145Z,101574.28
2023-05-05T21:27:03.166Z,101576.94
2023-05-05T21:30:35.753Z,101578.63
2023-05-05T21:34:02.648Z,101581.28
2023-05-05T21:41:13.090Z,101582.88
2023-05-05T21:45:00.232Z,101581.06
2023-05-05T21:48:06.791Z,101583.72
2023-05-05T21:51:34.880Z,101582.78
2023-05-05T21:54:37.916Z,101580.06
2023-05-05T21:57:59.018Z,101577.34
2023-05-05T22:01:02.493Z,101573.63
2023-05-05T22:04:05.770Z,101578.94
2023-05-05T22:10:49.301Z,101574.41
2023-05-05T22:13:52.244Z,101567.31
2023-05-05T22:16:56.923Z,101565.44
2023-05-05T22:23:41.709Z,101570.66
2023-05-05T22:26:44.185Z,101567.03
2023-05-05T22:29:47.157Z,101559.06
2023-05-05T22:32:49.799Z,101570.56
2023-05-05T22:35:53.652Z,101576.72
2023-05-05T22:38:56.460Z,101567.78
2023-05-05T22:41:59.102Z,101563.31
2023-05-05T22:45:01.569Z,101565.03
2023-05-05T22:48:04.734Z,101557.09
2023-05-05T22:51:07.780Z,101568.69
2023-05-05T22:54:10.896Z,101566.03
2023-05-05T22:57:13.368Z,101567.75
2023-05-05T23:00:16.171Z,101558.88
2023-05-05T23:03:18.699Z,101562.38
2023-05-05T23:06:21.407Z,101560.53
2023-05-05T23:09:23.995Z,101561.28
2023-05-05T23:12:26.703Z,101561.25
2023-05-05T23:15:29.113Z,101556.00
2023-05-05T23:18:32.072Z,101562.19
2023-05-05T23:21:52.033Z,101562.06
2023-05-05T23:24:55.380Z,101562.91
2023-05-05T23:27:59.245Z,101554.09
2023-05-05T23:31:02.190Z,101553.84
2023-05-05T23:34:04.689Z,101557.97
2023-05-05T23:37:07.284Z,101557.69
2023-05-05T23:40:09.969Z,101554.91
2023-05-05T23:43:13.080Z,101553.88
2023-05-05T23:46:15.840Z,101548.50
2023-05-05T23:49:18.765Z,101552.66
2023-05-05T23:52:21.204Z,101555.25
2023-05-05T23:55:24.087Z,101545.63
2023-05-05T23:58:26.885Z,101544.56
